Terminal Aerodrome Forecast
Issued by NWS

Home | Current Version | Previous Version | Text Only | Print | Product List | Glossary On
Versions: 1 2 3 4 5 6 7 8 9 10 11 12 13 14 15 16
000
FTUS41 KCAR 240500
TAFBHB
TAF
KBHB 240535Z 2406/2506 VRB03KT 5SM -SHRA BR BKN035 OVC100
      TEMPO 2406/2408 2SM BR
     FM241700 VRB03KT P6SM BKN060
     FM242300 33003KT P6SM SCT250
      AMD LTD TO CLD VIS AND WIND=

USA.gov is the U.S. government's official web portal to all federal, state and local government web resources and services.